Time;durP1;ratioP1;P1;durP2;ratioP2;P2;SDS_P1;SDS_P2;PMS_P1;PMS_P2;Temp;Humidity;BMP_temperature;BMP_pressure;BME280_temperature;BME280_humidity;BME280_pressure;Samples;Min_cycle;Max_cycle;Signal;HPM_P1;HPM_P2
2022/02/22 00:02:06;;;;;;;0.90;0.90;;;-4.50;99.90;;;;;;5114337;28;20456;-82
2022/02/22 00:04:36;;;;;;;0.90;0.90;;;-4.60;99.90;;;;;;5128837;28;20260;-82
2022/02/22 00:07:05;;;;;;;0.80;0.80;;;-4.60;99.90;;;;;;5129306;28;20225;-81
2022/02/22 00:09:32;;;;;;;0.83;0.83;;;-4.60;99.90;;;;;;5110377;28;20203;-82
2022/02/22 00:11:57;;;;;;;0.80;0.80;;;-4.60;99.90;;;;;;5112648;28;20290;-81
2022/02/22 00:14:24;;;;;;;0.90;0.90;;;-4.60;99.90;;;;;;5110266;28;20727;-81
2022/02/22 00:16:55;;;;;;;0.90;0.90;;;-4.70;99.90;;;;;;5124866;28;20207;-82
2022/02/22 00:19:30;;;;;;;0.80;0.80;;;-4.70;99.90;;;;;;5127976;28;20203;-82
2022/02/22 00:21:56;;;;;;;0.80;0.80;;;-4.60;99.90;;;;;;5127721;28;20300;-81
2022/02/22 00:24:22;;;;;;;0.82;0.82;;;-4.50;99.90;;;;;;5112884;27;20263;-82
2022/02/22 00:26:47;;;;;;;0.90;0.90;;;-4.50;99.90;;;;;;5113023;28;20200;-81
2022/02/22 00:29:14;;;;;;;0.87;0.87;;;-4.60;99.90;;;;;;5106867;28;20204;-82
2022/02/22 00:31:39;;;;;;;0.80;0.80;;;-4.50;99.90;;;;;;5115160;28;20383;-82
2022/02/22 00:34:06;;;;;;;0.80;0.80;;;-4.50;99.90;;;;;;5103499;28;20691;-81
2022/02/22 00:36:35;;;;;;;0.80;0.80;;;-4.40;99.90;;;;;;5125889;28;20245;-81
2022/02/22 00:39:03;;;;;;;0.80;0.80;;;-4.40;99.90;;;;;;5112026;28;20211;-82
2022/02/22 00:41:29;;;;;;;0.90;0.90;;;-4.50;99.90;;;;;;5122330;27;20208;-81
2022/02/22 00:43:55;;;;;;;1.10;1.10;;;-4.50;99.90;;;;;;5111743;27;20269;-81
2022/02/22 00:46:20;;;;;;;0.90;0.90;;;-4.60;99.90;;;;;;5124664;27;20705;-82
2022/02/22 00:48:46;;;;;;;0.80;0.80;;;-4.50;99.90;;;;;;5116160;28;20206;-81
2022/02/22 00:51:12;;;;;;;0.80;0.80;;;-4.50;99.90;;;;;;5131364;27;20654;-82
2022/02/22 00:53:38;;;;;;;0.88;0.88;;;-4.60;99.90;;;;;;5114509;28;20203;-81
2022/02/22 00:56:04;;;;;;;0.90;0.90;;;-4.70;99.90;;;;;;5130464;27;20716;-81
2022/02/22 00:58:29;;;;;;;0.90;0.90;;;-4.90;99.90;;;;;;5130411;27;20200;-82
2022/02/22 01:00:55;;;;;;;0.90;0.90;;;-4.90;99.90;;;;;;5115002;27;20719;-82
2022/02/22 01:03:21;;;;;;;0.80;0.80;;;-4.90;99.90;;;;;;5130702;27;20282;-82
2022/02/22 01:05:46;;;;;;;1.00;1.00;;;-4.80;99.90;;;;;;5114275;28;20685;-82
2022/02/22 01:08:12;;;;;;;0.90;0.90;;;-4.60;99.90;;;;;;5113571;28;20206;-82
2022/02/22 01:10:38;;;;;;;1.00;1.00;;;-4.60;99.90;;;;;;5112736;27;20208;-81
2022/02/22 01:13:04;;;;;;;0.90;0.90;;;-4.50;99.90;;;;;;5114699;28;20275;-81
2022/02/22 01:15:30;;;;;;;0.80;0.80;;;-4.60;99.90;;;;;;5112321;27;20305;-81
2022/02/22 01:17:56;;;;;;;0.80;0.80;;;-4.60;99.90;;;;;;5128731;27;20294;-81
2022/02/22 01:20:22;;;;;;;0.80;0.80;;;-4.50;99.90;;;;;;5128704;27;20203;-81
2022/02/22 01:22:52;;;;;;;0.80;0.80;;;-4.60;99.90;;;;;;5130863;27;20215;-81
2022/02/22 01:25:18;;;;;;;0.90;0.90;;;-4.70;99.90;;;;;;5130057;27;20229;-82
2022/02/22 01:27:44;;;;;;;0.93;0.93;;;-4.70;99.90;;;;;;5130953;27;20724;-82
2022/02/22 01:30:10;;;;;;;0.80;0.80;;;-4.70;99.90;;;;;;5129843;27;20199;-81
2022/02/22 01:32:36;;;;;;;0.90;0.90;;;-4.60;99.90;;;;;;5130720;27;20207;-81
2022/02/22 01:35:03;;;;;;;0.80;0.80;;;-4.60;99.90;;;;;;5130824;27;20215;-81
2022/02/22 01:37:29;;;;;;;0.80;0.80;;;-4.60;99.90;;;;;;5129542;27;20203;-81
2022/02/22 01:39:54;;;;;;;0.90;0.90;;;-4.50;99.90;;;;;;5106989;28;20235;-81
2022/02/22 01:42:20;;;;;;;0.80;0.80;;;-4.50;99.90;;;;;;5109950;28;20287;-82
2022/02/22 01:44:47;;;;;;;0.90;0.90;;;-4.40;99.90;;;;;;5109050;28;20204;-81
2022/02/22 01:47:16;;;;;;;0.90;0.90;;;-4.30;99.90;;;;;;5114192;27;20287;-81
2022/02/22 01:49:42;;;;;;;0.80;0.80;;;-4.40;99.90;;;;;;5116148;27;20286;-81
2022/02/22 01:52:08;;;;;;;0.90;0.90;;;-4.40;99.90;;;;;;5126962;27;20702;-81
2022/02/22 01:54:34;;;;;;;0.80;0.80;;;-4.40;99.90;;;;;;5113309;28;20215;-82
2022/02/22 01:57:00;;;;;;;0.90;0.90;;;-4.40;99.90;;;;;;5113023;27;20195;-82
2022/02/22 01:59:25;;;;;;;0.90;0.90;;;-4.50;99.90;;;;;;5129098;27;20223;-81
2022/02/22 02:01:51;;;;;;;0.90;0.90;;;-4.50;99.90;;;;;;5113278;28;20219;-80
2022/02/22 02:04:17;;;;;;;5.23;1.47;;;-4.50;99.90;;;;;;5130398;27;20199;-81
2022/02/22 02:06:43;;;;;;;0.90;0.90;;;-4.60;99.90;;;;;;5130829;27;20277;-81
2022/02/22 02:09:10;;;;;;;0.90;0.90;;;-4.70;99.90;;;;;;5113159;28;20731;-81
2022/02/22 02:11:58;;;;;;;0.87;0.87;;;-4.70;99.90;;;;;;5113186;27;20211;-80
2022/02/22 02:14:25;;;;;;;0.90;0.90;;;-4.80;99.90;;;;;;5123484;27;20425;-81
2022/02/22 02:16:56;;;;;;;0.88;0.88;;;-5.00;99.90;;;;;;5131156;27;20206;-81
2022/02/22 02:19:22;;;;;;;1.07;1.07;;;-4.90;99.90;;;;;;5110669;27;20243;-81
2022/02/22 02:21:49;;;;;;;0.80;0.80;;;-4.80;99.90;;;;;;5130019;27;20218;-80
2022/02/22 02:24:20;;;;;;;0.90;0.90;;;-4.90;99.90;;;;;;5114228;27;20211;-81
2022/02/22 02:26:47;;;;;;;0.82;0.82;;;-5.00;99.90;;;;;;5112878;28;20742;-81
2022/02/22 02:29:16;;;;;;;0.90;0.90;;;-5.20;99.90;;;;;;5114541;27;20211;-81
2022/02/22 02:31:44;;;;;;;1.00;1.00;;;-5.30;99.90;;;;;;5108739;28;20247;-81
2022/02/22 02:34:12;;;;;;;0.90;0.90;;;-5.40;99.90;;;;;;5129514;27;20207;-80
2022/02/22 02:36:38;;;;;;;0.80;0.80;;;-5.40;99.90;;;;;;5113417;28;20218;-81
2022/02/22 02:39:06;;;;;;;0.90;0.90;;;-5.40;99.90;;;;;;5128629;27;20314;-81
2022/02/22 02:41:34;;;;;;;0.90;0.90;;;-5.60;99.90;;;;;;5118255;27;20212;-81
2022/02/22 02:44:02;;;;;;;0.90;0.90;;;-5.70;99.90;;;;;;5111444;27;20196;-80
2022/02/22 02:46:28;;;;;;;1.40;1.30;;;-5.90;99.90;;;;;;5112369;27;20203;-81
2022/02/22 02:48:55;;;;;;;0.90;0.90;;;-5.80;99.90;;;;;;5122420;27;20261;-80
2022/02/22 02:51:22;;;;;;;0.90;0.90;;;-5.80;99.90;;;;;;5122997;27;20251;-82
2022/02/22 02:53:48;;;;;;;0.90;0.90;;;-5.70;99.90;;;;;;5099985;28;20202;-81
2022/02/22 02:56:14;;;;;;;0.90;0.90;;;-5.60;99.90;;;;;;5129110;27;20209;-80
2022/02/22 02:58:40;;;;;;;0.80;0.80;;;-5.60;99.90;;;;;;5131542;27;20290;-80
2022/02/22 03:01:06;;;;;;;1.00;1.00;;;-5.60;99.90;;;;;;5122209;27;20750;-80
2022/02/22 03:03:32;;;;;;;0.98;0.98;;;-5.60;99.90;;;;;;5127385;27;20272;-81
2022/02/22 03:05:58;;;;;;;0.90;0.90;;;-5.50;99.90;;;;;;5127237;27;20188;-81
2022/02/22 03:08:23;;;;;;;0.90;0.90;;;-5.30;99.90;;;;;;5128692;27;20758;-81
2022/02/22 03:10:49;;;;;;;0.90;0.90;;;-5.30;99.90;;;;;;5128703;27;20184;-81
2022/02/22 03:13:15;;;;;;;0.90;0.90;;;-5.30;99.90;;;;;;5110165;27;20290;-80
2022/02/22 03:15:41;;;;;;;0.87;0.87;;;-5.20;99.90;;;;;;5128300;27;20259;-80
2022/02/22 03:18:08;;;;;;;0.90;0.90;;;-5.20;99.90;;;;;;5127390;27;20202;-81
2022/02/22 03:20:35;;;;;;;0.90;0.90;;;-5.20;99.90;;;;;;5111859;28;20203;-81
2022/02/22 03:23:01;;;;;;;0.90;0.90;;;-5.10;99.90;;;;;;5111392;28;20207;-80
2022/02/22 03:25:30;;;;;;;0.90;0.90;;;-5.20;99.90;;;;;;5128364;27;20226;-81
2022/02/22 03:27:57;;;;;;;0.83;0.83;;;-5.20;99.90;;;;;;5126230;27;20692;-81
2022/02/22 03:30:23;;;;;;;1.00;1.00;;;-5.30;99.90;;;;;;5115703;27;20200;-81
2022/02/22 03:32:49;;;;;;;0.90;0.90;;;-5.30;99.90;;;;;;5114407;27;20669;-81
2022/02/22 03:35:15;;;;;;;0.90;0.90;;;-5.40;99.90;;;;;;5118177;27;20214;-80
2022/02/22 03:37:40;;;;;;;0.93;0.93;;;-5.40;99.90;;;;;;5128121;27;20303;-80
2022/02/22 03:40:07;;;;;;;0.90;0.90;;;-5.30;99.90;;;;;;5121810;27;20207;-81
2022/02/22 03:42:32;;;;;;;0.90;0.90;;;-5.40;99.90;;;;;;5099935;28;20697;-80
2022/02/22 03:44:58;;;;;;;0.90;0.90;;;-5.30;99.90;;;;;;5122671;27;20200;-81
2022/02/22 03:47:24;;;;;;;0.90;0.90;;;-5.40;99.90;;;;;;5097705;28;20202;-80
2022/02/22 03:49:49;;;;;;;0.90;0.90;;;-5.40;99.90;;;;;;5112539;28;20199;-79
2022/02/22 03:52:15;;;;;;;0.90;0.90;;;-5.40;99.90;;;;;;5128064;28;20223;-81
2022/02/22 03:54:41;;;;;;;0.90;0.90;;;-5.40;99.90;;;;;;5126948;28;20249;-80
2022/02/22 03:57:06;;;;;;;0.80;0.80;;;-5.40;99.90;;;;;;5111744;28;20558;-80
2022/02/22 03:59:32;;;;;;;0.90;0.90;;;-5.30;99.90;;;;;;5129250;28;20195;-80
2022/02/22 04:01:58;;;;;;;0.90;0.90;;;-5.30;99.90;;;;;;5101448;28;20229;-84
2022/02/22 04:04:23;;;;;;;0.90;0.90;;;-5.40;99.90;;;;;;5093660;28;20252;-81
2022/02/22 04:06:49;;;;;;;0.90;0.90;;;-5.30;99.90;;;;;;5110028;28;20226;-80
2022/02/22 04:09:15;;;;;;;0.80;0.80;;;-5.30;99.90;;;;;;5111125;28;20214;-81
2022/02/22 04:11:40;;;;;;;0.87;0.87;;;-5.40;99.90;;;;;;5127956;28;20260;-80
2022/02/22 04:14:06;;;;;;;0.80;0.80;;;-5.30;99.90;;;;;;5124856;27;20204;-80
2022/02/22 04:16:32;;;;;;;0.90;0.90;;;-5.30;99.90;;;;;;5125977;27;20199;-81
2022/02/22 04:18:57;;;;;;;1.10;1.10;;;-5.30;99.90;;;;;;5122081;27;20226;-80
2022/02/22 04:21:23;;;;;;;0.90;0.90;;;-5.30;99.90;;;;;;5123088;27;20204;-80
2022/02/22 04:23:49;;;;;;;0.90;0.90;;;-5.30;99.90;;;;;;5113286;27;20281;-80
2022/02/22 04:26:15;;;;;;;0.90;0.90;;;-5.20;99.90;;;;;;5131394;27;20564;-80
2022/02/22 04:28:40;;;;;;;0.90;0.90;;;-5.10;99.90;;;;;;5130551;27;20194;-80
2022/02/22 04:31:06;;;;;;;1.00;1.00;;;-5.10;99.90;;;;;;5124624;27;20200;-80
2022/02/22 04:33:32;;;;;;;0.80;0.80;;;-5.10;99.90;;;;;;5131997;27;20754;-80
2022/02/22 04:35:58;;;;;;;0.97;0.97;;;-5.10;99.90;;;;;;5132834;27;20206;-80
2022/02/22 04:38:23;;;;;;;0.90;0.90;;;-5.10;99.90;;;;;;5127071;27;20207;-81
2022/02/22 04:40:49;;;;;;;0.90;0.90;;;-5.20;99.90;;;;;;5131532;27;20202;-80
2022/02/22 04:43:15;;;;;;;0.90;0.90;;;-5.20;99.90;;;;;;5131251;27;20697;-80
2022/02/22 04:45:40;;;;;;;0.90;0.90;;;-5.30;99.90;;;;;;5113667;27;20609;-82
2022/02/22 04:48:06;;;;;;;0.80;0.80;;;-5.30;99.90;;;;;;5131820;27;20221;-80
2022/02/22 04:50:32;;;;;;;0.80;0.80;;;-5.30;99.90;;;;;;5115948;27;20332;-80
2022/02/22 04:52:58;;;;;;;0.90;0.90;;;-5.40;99.90;;;;;;5114887;27;20224;-80
2022/02/22 04:55:23;;;;;;;0.87;0.87;;;-5.30;99.90;;;;;;5111446;28;20289;-79
2022/02/22 04:57:49;;;;;;;0.90;0.90;;;-5.40;99.90;;;;;;5114686;27;20210;-80
2022/02/22 05:00:16;;;;;;;0.90;0.90;;;-5.30;99.90;;;;;;5119654;27;20230;-80
2022/02/22 05:02:42;;;;;;;0.90;0.90;;;-5.30;99.90;;;;;;5107624;28;20229;-80
2022/02/22 05:05:08;;;;;;;0.83;0.83;;;-5.30;99.90;;;;;;5124128;27;20369;-80
2022/02/22 05:07:34;;;;;;;0.90;0.90;;;-5.40;99.90;;;;;;5122115;27;20282;-80
2022/02/22 05:10:00;;;;;;;0.97;0.97;;;-5.40;99.90;;;;;;5123955;27;20308;-80
2022/02/22 05:12:25;;;;;;;0.90;0.90;;;-5.30;99.90;;;;;;5110807;27;20194;-80
2022/02/22 05:14:51;;;;;;;0.90;0.90;;;-5.40;99.90;;;;;;5123631;27;20225;-81
2022/02/22 05:17:17;;;;;;;0.90;0.90;;;-5.40;99.90;;;;;;5126040;27;20200;-80
2022/02/22 05:19:43;;;;;;;0.80;0.80;;;-5.40;99.90;;;;;;5104596;27;20210;-80
2022/02/22 05:22:08;;;;;;;0.90;0.90;;;-5.40;99.90;;;;;;5122961;27;20226;-80
2022/02/22 05:24:34;;;;;;;1.00;1.00;;;-5.40;99.90;;;;;;5099259;27;20215;-81
2022/02/22 05:27:00;;;;;;;0.90;0.90;;;-5.40;99.90;;;;;;5130690;27;20206;-80
2022/02/22 05:29:25;;;;;;;0.83;0.83;;;-5.40;99.90;;;;;;5130566;27;20207;-82
2022/02/22 05:31:51;;;;;;;0.90;0.90;;;-5.50;99.90;;;;;;5112135;28;20223;-81
2022/02/22 05:34:18;;;;;;;0.90;0.90;;;-5.50;99.90;;;;;;5131122;27;20195;-80
2022/02/22 05:36:44;;;;;;;0.90;0.90;;;-5.50;99.90;;;;;;5130729;27;20202;-81
2022/02/22 05:39:09;;;;;;;0.85;0.85;;;-5.50;99.90;;;;;;5113935;28;20270;-81
2022/02/22 05:41:35;;;;;;;1.00;1.00;;;-5.60;99.90;;;;;;5130403;27;20207;-81
2022/02/22 05:44:01;;;;;;;0.80;0.80;;;-5.60;99.90;;;;;;5114257;28;20204;-80
2022/02/22 05:46:27;;;;;;;1.00;1.00;;;-5.70;99.90;;;;;;5130374;27;20202;-80
2022/02/22 05:48:52;;;;;;;0.93;0.93;;;-5.70;99.90;;;;;;5116483;27;20294;-80
2022/02/22 05:51:18;;;;;;;0.90;0.90;;;-5.70;99.90;;;;;;5119615;27;20221;-82
2022/02/22 05:53:44;;;;;;;0.90;0.90;;;-5.60;99.90;;;;;;5130135;27;20273;-81
2022/02/22 05:56:10;;;;;;;0.90;0.90;;;-5.60;99.90;;;;;;5130289;27;20268;-81
2022/02/22 05:58:36;;;;;;;0.93;0.93;;;-5.60;99.90;;;;;;5132511;27;20697;-80
2022/02/22 06:01:02;;;;;;;0.80;0.80;;;-5.60;99.90;;;;;;5120691;27;20207;-81
2022/02/22 06:03:30;;;;;;;0.90;0.90;;;-5.80;99.90;;;;;;5121767;27;20762;-81
2022/02/22 06:05:56;;;;;;;0.90;0.90;;;-5.90;99.90;;;;;;5101473;28;20203;-80
2022/02/22 06:08:22;;;;;;;1.00;1.00;;;-6.00;99.90;;;;;;5112843;28;20200;-81
2022/02/22 06:10:48;;;;;;;0.90;0.90;;;-5.90;99.90;;;;;;5113228;28;20222;-80
2022/02/22 06:13:15;;;;;;;0.90;0.90;;;-6.00;99.90;;;;;;5128965;27;20239;-81
2022/02/22 06:15:41;;;;;;;0.90;0.90;;;-6.00;99.90;;;;;;5117407;27;20207;-81
2022/02/22 06:18:06;;;;;;;0.90;0.90;;;-6.10;99.90;;;;;;5129212;27;20211;-81
2022/02/22 06:20:34;;;;;;;0.90;0.90;;;-6.20;99.90;;;;;;5128759;27;20708;-82
2022/02/22 06:22:59;;;;;;;0.90;0.90;;;-6.40;99.90;;;;;;5112862;28;20550;-81
2022/02/22 06:25:26;;;;;;;0.90;0.90;;;-6.60;99.90;;;;;;5111812;27;20234;-81
2022/02/22 06:27:53;;;;;;;0.83;0.83;;;-6.70;99.90;;;;;;5112566;28;20199;-86
2022/02/22 06:30:22;;;;;;;0.90;0.90;;;-6.80;99.90;;;;;;5111634;28;20283;-83
2022/02/22 06:32:52;;;;;;;0.90;0.90;;;-6.90;99.90;;;;;;5112615;27;20212;-81
2022/02/22 06:35:43;;;;;;;0.90;0.90;;;-7.00;99.90;;;;;;5112521;28;20215;-82
2022/02/22 06:38:08;;;;;;;0.90;0.90;;;-7.10;99.90;;;;;;5132012;27;20207;-84
2022/02/22 06:40:36;;;;;;;0.90;0.90;;;-7.20;99.90;;;;;;5112571;28;20635;-81
2022/02/22 06:43:02;;;;;;;0.80;0.80;;;-7.30;99.90;;;;;;5129817;27;20206;-81
2022/02/22 06:45:28;;;;;;;0.90;0.90;;;-7.50;99.90;;;;;;5114045;27;20540;-81
2022/02/22 06:47:54;;;;;;;0.80;0.80;;;-7.60;99.90;;;;;;5129397;27;20202;-81
2022/02/22 06:50:22;;;;;;;0.90;0.90;;;-7.70;99.90;;;;;;5115677;27;20633;-82
2022/02/22 06:52:47;;;;;;;0.90;0.90;;;-7.80;99.90;;;;;;5109649;28;20306;-81
2022/02/22 06:55:15;;;;;;;0.90;0.90;;;-7.90;99.90;;;;;;5122893;27;20638;-81
2022/02/22 06:57:41;;;;;;;0.90;0.90;;;-7.90;99.90;;;;;;5117822;27;20545;-81
2022/02/22 07:00:09;;;;;;;1.00;1.00;;;-7.80;99.90;;;;;;5112043;28;20248;-81
2022/02/22 07:02:40;;;;;;;1.00;1.00;;;-7.80;99.90;;;;;;5120844;27;20586;-81
2022/02/22 07:05:07;;;;;;;0.90;0.90;;;-7.70;99.90;;;;;;5127981;27;20206;-81
2022/02/22 07:07:33;;;;;;;0.90;0.90;;;-7.70;99.90;;;;;;5122733;27;20215;-81
2022/02/22 07:09:59;;;;;;;0.80;0.80;;;-7.60;99.90;;;;;;5119256;27;20245;-81
2022/02/22 07:12:25;;;;;;;1.00;1.00;;;-7.30;99.90;;;;;;5130692;27;20203;-81
2022/02/22 07:14:50;;;;;;;0.80;0.80;;;-7.10;99.90;;;;;;5151377;27;20199;-82
2022/02/22 07:17:16;;;;;;;0.90;0.90;;;-6.90;99.90;;;;;;5137228;27;20190;-81
2022/02/22 07:19:43;;;;;;;0.90;0.90;;;-6.70;99.90;;;;;;5149565;27;20200;-81
2022/02/22 07:22:09;;;;;;;3.17;1.53;;;-6.50;99.90;;;;;;5136287;28;20282;-80
2022/02/22 07:24:34;;;;;;;1.00;1.00;;;-6.50;99.90;;;;;;5152621;27;20206;-81
2022/02/22 07:27:00;;;;;;;1.00;1.00;;;-6.40;99.90;;;;;;5154687;27;20203;-83
2022/02/22 07:29:26;;;;;;;1.00;1.00;;;-6.10;99.90;;;;;;5154296;27;20207;-85
2022/02/22 07:31:51;;;;;;;15.10;3.00;;;-5.90;99.90;;;;;;5137527;28;20218;-87
2022/02/22 07:34:17;;;;;;;1.00;1.00;;;-5.80;99.90;;;;;;5135239;27;20231;-81
2022/02/22 07:36:44;;;;;;;1.10;1.10;;;-5.60;99.90;;;;;;5137074;27;20226;-80
2022/02/22 07:39:09;;;;;;;1.10;1.10;;;-5.60;99.90;;;;;;5136272;28;20199;-81
2022/02/22 07:41:36;;;;;;;1.00;1.00;;;-5.50;99.90;;;;;;5153383;27;20215;-82
2022/02/22 07:44:01;;;;;;;0.90;0.90;;;-5.50;99.90;;;;;;5153179;27;20212;-82
2022/02/22 07:46:27;;;;;;;1.00;1.00;;;-5.30;99.90;;;;;;5150408;27;20219;-83
2022/02/22 07:48:53;;;;;;;1.10;1.10;;;-5.20;99.90;;;;;;5139146;27;20203;-81
2022/02/22 07:51:19;;;;;;;0.90;0.90;;;-5.10;99.90;;;;;;5140795;27;20200;-82
2022/02/22 07:53:48;;;;;;;1.00;1.00;;;-5.00;99.90;;;;;;5131686;28;20198;-81
2022/02/22 07:56:15;;;;;;;0.90;0.90;;;-4.90;99.90;;;;;;5134601;28;20409;-80
2022/02/22 07:58:41;;;;;;;0.90;0.90;;;-4.80;99.90;;;;;;5129331;28;20270;-81
2022/02/22 08:01:09;;;;;;;0.90;0.90;;;-4.70;99.90;;;;;;5106323;28;20206;-81
2022/02/22 08:03:36;;;;;;;0.90;0.90;;;-4.70;99.90;;;;;;5121939;28;20226;-81
2022/02/22 08:06:02;;;;;;;0.90;0.90;;;-4.60;99.90;;;;;;5126259;27;20203;-81
2022/02/22 08:08:28;;;;;;;0.85;0.85;;;-4.50;99.90;;;;;;5124487;28;20548;-81
2022/02/22 08:10:53;;;;;;;0.90;0.90;;;-4.30;99.90;;;;;;5103838;28;20200;-81
2022/02/22 08:13:19;;;;;;;1.00;1.00;;;-4.30;99.90;;;;;;5127277;27;20203;-83
2022/02/22 08:15:47;;;;;;;0.90;0.90;;;-4.10;99.90;;;;;;5115549;28;20219;-81
2022/02/22 08:18:12;;;;;;;0.90;0.90;;;-4.10;99.90;;;;;;5127831;28;20264;-82
2022/02/22 08:20:41;;;;;;;0.90;0.90;;;-4.00;99.90;;;;;;5112469;28;21264;-81
2022/02/22 08:23:08;;;;;;;0.88;0.88;;;-3.90;99.90;;;;;;5112631;28;20200;-81
2022/02/22 08:25:34;;;;;;;0.90;0.90;;;-3.80;99.90;;;;;;5126414;28;20676;-87
2022/02/22 08:28:05;;;;;;;1.00;1.00;;;-3.60;99.90;;;;;;5111645;28;20241;-82
2022/02/22 08:30:31;;;;;;;0.90;0.90;;;-3.50;99.90;;;;;;5112506;28;20211;-81
2022/02/22 08:32:56;;;;;;;0.90;0.90;;;-3.40;99.90;;;;;;5127100;28;20579;-81
2022/02/22 08:35:22;;;;;;;0.88;0.88;;;-3.30;99.90;;;;;;5125372;28;20203;-81
2022/02/22 08:37:50;;;;;;;0.98;0.98;;;-3.10;99.90;;;;;;5113710;27;20291;-81
2022/02/22 08:40:16;;;;;;;0.90;0.90;;;-2.90;99.90;;;;;;5109861;28;20258;-81
2022/02/22 08:42:42;;;;;;;0.75;0.75;;;-2.80;99.90;;;;;;5124275;28;20206;-80
2022/02/22 08:45:07;;;;;;;0.90;0.90;;;-2.60;99.90;;;;;;5115379;28;20207;-81
2022/02/22 08:47:33;;;;;;;0.98;0.98;;;-2.50;99.90;;;;;;5127761;28;20610;-81
2022/02/22 08:49:59;;;;;;;0.88;0.88;;;-2.30;99.90;;;;;;5110688;28;20227;-81
2022/02/22 08:52:29;;;;;;;0.80;0.80;;;-2.20;99.90;;;;;;5126429;28;20231;-81
2022/02/22 08:54:56;;;;;;;0.90;0.90;;;-2.00;99.90;;;;;;5109697;28;20199;-81
2022/02/22 08:57:21;;;;;;;0.90;0.90;;;-1.80;99.90;;;;;;5127723;28;20210;-82
2022/02/22 08:59:47;;;;;;;0.90;0.90;;;-1.60;99.90;;;;;;5112246;28;20203;-82
2022/02/22 09:02:13;;;;;;;1.00;1.00;;;-1.70;99.90;;;;;;5115642;28;20211;-81
2022/02/22 09:04:39;;;;;;;0.90;0.90;;;-1.50;99.90;;;;;;5113153;28;20294;-81
2022/02/22 09:07:05;;;;;;;0.82;0.82;;;-1.40;99.90;;;;;;5124369;27;20299;-80
2022/02/22 09:09:31;;;;;;;0.90;0.90;;;-1.20;99.90;;;;;;5102385;28;20240;-80
2022/02/22 09:11:56;;;;;;;0.80;0.80;;;-1.10;99.90;;;;;;5131530;27;20236;-82
2022/02/22 09:14:23;;;;;;;0.90;0.90;;;-0.90;99.90;;;;;;5113742;27;20272;-81
2022/02/22 09:16:49;;;;;;;1.00;1.00;;;-0.80;99.90;;;;;;5131401;27;20663;-82
2022/02/22 09:19:14;;;;;;;1.05;1.05;;;-0.70;99.90;;;;;;5113303;28;20294;-82
2022/02/22 09:21:40;;;;;;;1.40;1.30;;;-0.60;99.90;;;;;;5130692;27;20344;-83
2022/02/22 09:24:06;;;;;;;0.90;0.90;;;-0.50;99.90;;;;;;5113007;28;20283;-82
2022/02/22 09:26:32;;;;;;;0.80;0.80;;;-0.50;99.90;;;;;;5130905;27;20196;-82
2022/02/22 09:28:58;;;;;;;0.90;0.90;;;-0.30;99.90;;;;;;5131027;27;20194;-82
2022/02/22 09:31:25;;;;;;;0.95;0.95;;;-0.20;99.90;;;;;;5132474;27;20211;-83
2022/02/22 09:33:51;;;;;;;1.05;1.02;;;-0.10;99.90;;;;;;5113759;28;20203;-82
2022/02/22 09:36:17;;;;;;;0.90;0.90;;;0.00;99.90;;;;;;5115106;28;20199;-82
2022/02/22 09:38:43;;;;;;;0.80;0.80;;;0.30;99.90;;;;;;5113652;28;20290;-82
2022/02/22 09:41:10;;;;;;;0.85;0.85;;;0.40;99.90;;;;;;5114022;27;20258;-82
2022/02/22 09:43:35;;;;;;;0.70;0.70;;;0.50;99.90;;;;;;5111811;28;20607;-82
2022/02/22 09:46:01;;;;;;;0.77;0.77;;;0.50;99.90;;;;;;5129025;27;20210;-81
2022/02/22 09:48:27;;;;;;;0.80;0.80;;;0.80;99.90;;;;;;5116790;27;20319;-82
2022/02/22 09:50:53;;;;;;;0.70;0.70;;;0.80;99.90;;;;;;5112164;28;20222;-82
2022/02/22 09:53:19;;;;;;;0.80;0.80;;;1.10;99.90;;;;;;5119397;27;20594;-83
2022/02/22 09:55:45;;;;;;;0.70;0.70;;;1.20;99.90;;;;;;5116045;27;20211;-82
2022/02/22 09:58:11;;;;;;;1.08;1.08;;;1.20;99.90;;;;;;5131393;27;20202;-82
2022/02/22 10:00:36;;;;;;;0.70;0.70;;;1.50;99.90;;;;;;5122171;27;20225;-82
2022/02/22 10:03:02;;;;;;;0.73;0.73;;;1.70;99.90;;;;;;5110128;28;20302;-82
2022/02/22 10:05:28;;;;;;;0.70;0.70;;;1.90;99.90;;;;;;5123775;27;20543;-82
2022/02/22 10:08:02;;;;;;;0.70;0.70;;;1.60;99.90;;;;;;5099071;28;20658;-82
2022/02/22 10:10:42;;;;;;;0.70;0.70;;;1.80;99.90;;;;;;5130174;27;20187;-82
2022/02/22 10:13:09;;;;;;;0.73;0.73;;;1.60;99.90;;;;;;5128809;27;20207;-82
2022/02/22 10:15:41;;;;;;;0.60;0.60;;;1.20;99.90;;;;;;5115229;27;20711;-83
2022/02/22 10:18:08;;;;;;;0.70;0.70;;;1.10;99.90;;;;;;5100835;28;20196;-82
2022/02/22 10:20:35;;;;;;;1.05;1.00;;;0.90;99.90;;;;;;5123816;27;20207;-82
2022/02/22 10:23:02;;;;;;;2.80;1.75;;;1.20;99.90;;;;;;5102512;27;20204;-82
2022/02/22 10:25:28;;;;;;;0.70;0.70;;;1.30;99.90;;;;;;5128856;27;20191;-82
2022/02/22 10:27:58;;;;;;;0.73;0.73;;;1.60;99.90;;;;;;5128753;27;20648;-82
2022/02/22 10:30:43;;;;;;;0.70;0.70;;;1.60;99.90;;;;;;5129427;27;20195;-83
2022/02/22 10:33:12;;;;;;;0.70;0.70;;;1.40;99.90;;;;;;5129245;27;20214;-82
2022/02/22 10:35:39;;;;;;;0.70;0.70;;;1.30;99.90;;;;;;5128160;27;20683;-82
2022/02/22 10:38:35;;;;;;;2.10;1.33;;;1.10;99.90;;;;;;5128587;27;20294;-82
2022/02/22 10:41:15;;;;;;;0.80;0.80;;;1.30;99.90;;;;;;5090181;28;20219;-82
2022/02/22 10:43:50;;;;;;;0.70;0.70;;;1.20;99.90;;;;;;5124232;27;20215;-82
2022/02/22 10:46:16;;;;;;;0.70;0.70;;;1.00;99.90;;;;;;5099289;27;20195;-82
2022/02/22 10:48:43;;;;;;;0.70;0.70;;;0.80;99.90;;;;;;5111032;28;20563;-82
2022/02/22 10:51:10;;;;;;;0.93;0.93;;;1.30;99.90;;;;;;5127776;27;20336;-82
2022/02/22 10:53:39;;;;;;;1.35;1.25;;;1.50;99.90;;;;;;5112714;27;20278;-83
2022/02/22 10:56:08;;;;;;;2.75;1.70;;;1.70;99.90;;;;;;5129028;27;20203;-83
2022/02/22 10:58:39;;;;;;;0.80;0.80;;;1.70;99.90;;;;;;5128537;27;20202;-83
2022/02/22 11:01:09;;;;;;;0.73;0.73;;;1.60;99.90;;;;;;5128196;27;20686;-84
2022/02/22 11:03:35;;;;;;;7.60;1.85;;;1.50;99.90;;;;;;5130981;27;20293;-84
2022/02/22 11:06:01;;;;;;;1.02;1.02;;;1.70;99.90;;;;;;5111043;27;20243;-83
2022/02/22 11:08:31;;;;;;;0.90;0.90;;;1.90;99.90;;;;;;5112046;28;20273;-84
2022/02/22 11:11:32;;;;;;;0.70;0.70;;;2.10;99.90;;;;;;5110832;28;20204;-84
2022/02/22 11:14:04;;;;;;;1.25;1.15;;;2.40;99.90;;;;;;5128637;27;20211;-84
2022/02/22 11:16:50;;;;;;;0.70;0.70;;;2.30;99.90;;;;;;5110439;28;20188;-84
2022/02/22 11:19:21;;;;;;;0.68;0.68;;;2.20;99.90;;;;;;5112553;27;20284;-85
2022/02/22 11:21:50;;;;;;;0.80;0.80;;;2.00;99.90;;;;;;5128090;27;20574;-84
2022/02/22 11:24:18;;;;;;;0.70;0.70;;;1.90;99.90;;;;;;5128660;27;20616;-84
2022/02/22 11:26:52;;;;;;;0.70;0.70;;;2.10;99.90;;;;;;5111565;28;20195;-87
2022/02/22 11:29:19;;;;;;;0.73;0.73;;;2.30;99.90;;;;;;5111001;28;20256;-82
2022/02/22 11:32:11;;;;;;;0.68;0.68;;;2.30;99.90;;;;;;5128525;27;20195;-83
2022/02/22 11:34:39;;;;;;;0.70;0.70;;;1.90;99.90;;;;;;5094765;28;20601;-82
2022/02/22 11:37:14;;;;;;;0.80;0.80;;;1.60;99.90;;;;;;5128706;27;20218;-82
2022/02/22 11:39:51;;;;;;;0.70;0.70;;;1.40;99.90;;;;;;5110242;28;20504;-82
2022/02/22 11:42:22;;;;;;;0.75;0.75;;;1.40;99.90;;;;;;5111456;28;20209;-84
2022/02/22 11:45:02;;;;;;;0.57;0.57;;;1.30;99.90;;;;;;5110284;28;20227;-84
2022/02/22 11:47:29;;;;;;;0.70;0.70;;;1.20;99.90;;;;;;5093643;28;20466;-84
2022/02/22 11:49:56;;;;;;;0.70;0.70;;;1.10;99.90;;;;;;5127877;27;20211;-84
2022/02/22 11:52:37;;;;;;;0.70;0.70;;;1.00;99.90;;;;;;5128127;27;20273;-84
2022/02/22 11:55:06;;;;;;;0.70;0.70;;;1.10;99.90;;;;;;5111031;28;20210;-84
2022/02/22 11:57:43;;;;;;;0.80;0.80;;;1.00;99.90;;;;;;5110823;28;20203;-87
2022/02/22 12:00:09;;;;;;;0.75;0.75;;;1.10;99.90;;;;;;5110581;28;20348;-82
2022/02/22 12:02:53;;;;;;;0.70;0.70;;;1.00;99.90;;;;;;5111014;28;20598;-80
2022/02/22 12:05:28;;;;;;;0.70;0.70;;;1.10;99.90;;;;;;5094183;28;20669;-82
2022/02/22 12:08:02;;;;;;;0.70;0.70;;;0.80;99.90;;;;;;5126273;28;20195;-84
2022/02/22 12:10:30;;;;;;;0.70;0.70;;;0.80;99.90;;;;;;5093818;28;20206;-84
2022/02/22 12:13:13;;;;;;;0.70;0.70;;;0.70;99.90;;;;;;5095190;28;20698;-82
2022/02/22 12:15:41;;;;;;;0.60;0.60;;;0.70;99.90;;;;;;5107625;28;20203;-83
2022/02/22 12:18:13;;;;;;;0.73;0.73;;;0.80;99.90;;;;;;5111448;28;20238;-83
2022/02/22 12:20:39;;;;;;;0.90;0.90;;;0.80;99.90;;;;;;5091925;28;20737;-83
2022/02/22 12:23:04;;;;;;;0.70;0.70;;;0.60;99.90;;;;;;5111255;28;20303;-83
2022/02/22 12:25:30;;;;;;;0.70;0.70;;;0.70;99.90;;;;;;5109810;28;20560;-83
2022/02/22 12:28:03;;;;;;;0.70;0.70;;;0.80;99.90;;;;;;5112527;28;20654;-84
2022/02/22 12:30:41;;;;;;;0.73;0.73;;;0.80;99.90;;;;;;5110026;28;20202;-83
2022/02/22 12:33:07;;;;;;;0.80;0.80;;;0.60;99.90;;;;;;5108959;28;20203;-83
2022/02/22 12:35:39;;;;;;;0.70;0.70;;;0.60;99.90;;;;;;5114724;28;20203;-83
2022/02/22 12:38:19;;;;;;;0.80;0.80;;;0.50;99.90;;;;;;5115802;27;20283;-82
2022/02/22 12:40:50;;;;;;;0.80;0.80;;;0.40;99.90;;;;;;5113875;28;20203;-82
2022/02/22 12:43:16;;;;;;;0.70;0.70;;;0.50;99.90;;;;;;5130644;27;20211;-84
2022/02/22 12:45:51;;;;;;;1.30;0.88;;;0.60;99.90;;;;;;5113447;28;20565;-84
2022/02/22 12:48:19;;;;;;;0.70;0.70;;;0.60;99.90;;;;;;5131556;27;20195;-84
2022/02/22 12:50:58;;;;;;;0.70;0.70;;;0.50;99.90;;;;;;5130533;27;20257;-83
2022/02/22 12:53:32;;;;;;;0.60;0.60;;;0.50;99.90;;;;;;5112888;27;20250;-82